Wellsville, OH (43968)

6:30 PM EST on November 28, 2014 (GMT -0500)
Calcutta, OH | Change Station
CLOSE
Current Station
Personal Weather Station
Location: East Liverpool, OH
Elevation: 1221 ft
Nearby Weather Stations

Elev 1221 ft 40.66 °N, 80.57 °W | Updated 8 minutes ago

Overcast
Overcast
26.2 °F
Feels Like 26 °F
N
1.0
Wind Variable Wind from East
Gusts 2.0 mph

Today
High -- | Low -- °F
--% Chance of Precip.
Yesterday
High -- | Low -- °F
Precip. -- in
7:23 AM 4:57 PM
Waxing Crescent, 45% visible
Pressure 30.30 in
Visibility 10.0 miles
Clouds Few 3100 ft
Mostly Cloudy 10000 ft
Mostly Cloudy 14000 ft
Windchill 26 °F
Dew Point 21 °F
Humidity 79%
Rainfall 0.00 in
Snow Depth Not available.
UV 0 out of 12
Pollen .10 out of 12
Air Quality Not available.
Flu Activity Not available.
METAR KPIT 282251Z 24004KT 10SM FEW031 BKN100 BKN140 M03/M09 A3023 RMK AO2 SLP261 T10331089

More Conditions Fewer Conditions

Pressure 30.30 in
Visibility 10.0 miles
Clouds Few 3100 ft
Mostly Cloudy 10000 ft
Mostly Cloudy 14000 ft
Windchill 26 °F
Dew Point 21 °F
Humidity 79%
Rainfall 0.00 in
Snow Depth Not available.
UV 0 out of 12
Pollen .10 out of 12
Air Quality Not available.
Flu Activity Not available.
METAR KPIT 282251Z 24004KT 10SM FEW031 BKN100 BKN140 M03/M09 A3023 RMK AO2 SLP261 T10331089

More Conditions Fewer Conditions

10-Day Weather Forecast

Almanac

Astronomy

Nov. 28, 2014 Rise Set
Actual Time
Civil Twilight
Nautical Twilight
Astronomical Twilight
Moon
Length of Visible Light
Length of Day
Tomorrow will be .
, % of the Moon is Illuminated

Today's Extremes

State Highs State Lows

Community

WunderPhotos

Upload Photos

1,774,338 photos uploaded!

WunderBlogs® & News

Nearby

Air Quality

  Air Quality AQ Index Pollutant
Not available.

Snow Depth

Station Depth Elevation

Earthquake Activity

City Distance Mag. Time & Date
Minimum magnitude displayed is 2.5.

Coastal Water Temperatures

Place Temperature

Nearby Weather Stations